< < Back
Terminal Aerodrome Forecast


Current Version              Previous Versions:   1  2  3  4  5  6  7  8  9  

Terminal Aerodrome Forecast

689
FTAK31 PAJN 231100
TAFAGS
TAF
PAGS 231139Z 2312/2412 VRB04KT P6SM VCFG SCT200
     FM231400 VRB06KT P6SM SCT020 BKN150
     FM231900 23008KT P6SM BKN150
     FM240400 22005KT P6SM BKN010 BKN100
      AMD LTD TO CLD VIS AND WIND=



Latest METAR

856
SAUS70 KWBC 231500 RRN
MTRAGS
METAR KAGS 231453Z 08009KT 10SM CLR 25/10 A3039 RMK AO2 SLP289 T02500100
50010


USA.gov is the U.S. government's official web portal to all federal, state and local government web resources and services.